createdAt,value
2023-01-05T00:01:39.880Z,27.35
2023-01-05T00:04:07.796Z,27.60
2023-01-05T00:06:35.758Z,26.98
2023-01-05T00:09:03.285Z,28.95
2023-01-05T00:11:49.569Z,32.47
2023-01-05T00:14:36.977Z,38.45
2023-01-05T00:17:23.327Z,38.80
2023-01-05T00:20:09.263Z,42.05
2023-01-05T00:22:41.764Z,46.88
2023-01-05T00:25:13.398Z,52.15
2023-01-05T00:27:42.224Z,54.15
2023-01-05T00:30:10.951Z,62.42
2023-01-05T00:32:38.473Z,58.38
2023-01-05T00:35:06.233Z,76.57
2023-01-05T00:37:36.447Z,72.90
2023-01-05T00:40:05.960Z,96.95
2023-01-05T00:42:33.385Z,68.18
2023-01-05T00:45:00.789Z,78.97
2023-01-05T00:47:28.231Z,98.78
2023-01-05T00:49:55.668Z,87.88
2023-01-05T00:52:23.002Z,83.68
2023-01-05T00:54:50.743Z,90.20
2023-01-05T00:57:18.179Z,95.00
2023-01-05T00:59:45.569Z,126.63
2023-01-05T01:02:14.839Z,132.30
2023-01-05T01:04:42.297Z,112.30
2023-01-05T01:07:09.688Z,104.63
2023-01-05T01:09:37.465Z,103.32
2023-01-05T01:12:04.931Z,91.60
2023-01-05T01:14:32.483Z,117.95
2023-01-05T01:16:59.929Z,145.75
2023-01-05T01:19:27.896Z,137.23
2023-01-05T01:21:55.276Z,124.63
2023-01-05T01:24:24.770Z,143.77
2023-01-05T01:26:52.490Z,106.25
2023-01-05T01:29:20.368Z,124.28
2023-01-05T01:31:48.441Z,112.57
2023-01-05T01:34:16.121Z,114.40
2023-01-05T01:36:43.666Z,153.50
2023-01-05T01:39:12.628Z,148.25
2023-01-05T01:41:43.098Z,141.18
2023-01-05T01:44:29.118Z,114.03
2023-01-05T01:46:56.894Z,128.85
2023-01-05T01:49:24.305Z,96.28
2023-01-05T01:51:51.737Z,106.25
2023-01-05T01:54:19.251Z,94.82
2023-01-05T01:56:52.261Z,98.35
2023-01-05T01:59:19.749Z,97.35
2023-01-05T02:01:49.629Z,100.07
2023-01-05T02:04:17.176Z,103.30
2023-01-05T02:06:44.630Z,109.95
2023-01-05T02:09:12.098Z,73.28
2023-01-05T02:11:42.633Z,97.15
2023-01-05T02:14:24.506Z,99.00
2023-01-05T02:16:52.536Z,93.35
2023-01-05T02:19:38.765Z,97.00
2023-01-05T02:22:12.507Z,94.00
2023-01-05T02:24:58.825Z,89.65
2023-01-05T02:27:26.275Z,96.60
2023-01-05T02:30:12.182Z,80.18
2023-01-05T02:32:55.016Z,82.88
2023-01-05T02:35:35.048Z,93.63
2023-01-05T02:38:02.711Z,101.75
2023-01-05T02:40:35.208Z,118.38
2023-01-05T02:43:04.291Z,135.18
2023-01-05T02:45:31.720Z,110.38
2023-01-05T02:48:00.952Z,90.30
2023-01-05T02:50:35.723Z,141.13
2023-01-05T02:53:22.347Z,107.38
2023-01-05T02:56:06.034Z,129.40
2023-01-05T02:58:46.240Z,99.85
2023-01-05T03:01:20.719Z,99.40
2023-01-05T03:03:54.669Z,83.45
2023-01-05T03:06:22.551Z,91.97
2023-01-05T03:08:52.587Z,79.25
2023-01-05T03:11:40.530Z,99.72
2023-01-05T03:14:16.916Z,86.40
2023-01-05T03:16:45.630Z,81.32
2023-01-05T03:19:34.985Z,81.85
2023-01-05T03:22:26.185Z,69.22
2023-01-05T03:25:12.281Z,66.78
2023-01-05T03:28:00.402Z,76.05
2023-01-05T03:30:52.767Z,67.63
2023-01-05T03:33:43.224Z,54.65
2023-01-05T03:36:13.020Z,63.47
2023-01-05T03:38:45.888Z,71.13
2023-01-05T03:41:16.079Z,89.38
2023-01-05T03:43:44.420Z,85.13
2023-01-05T03:46:13.074Z,62.88
2023-01-05T03:48:40.742Z,72.00
2023-01-05T03:51:08.661Z,92.82
2023-01-05T03:53:38.507Z,80.47
2023-01-05T03:56:06.088Z,68.63
2023-01-05T03:58:33.482Z,84.85
2023-01-05T04:01:01.662Z,69.57
2023-01-05T04:03:32.128Z,67.30
2023-01-05T04:06:03.407Z,67.95
2023-01-05T04:08:33.236Z,74.65
2023-01-05T04:11:15.174Z,83.43
2023-01-05T04:13:46.673Z,117.05
2023-01-05T04:16:14.741Z,85.20
2023-01-05T04:18:43.126Z,113.93
2023-01-05T04:21:10.959Z,81.95
2023-01-05T04:23:39.639Z,94.55
2023-01-05T04:26:07.082Z,101.57
2023-01-05T04:28:34.682Z,118.13
2023-01-05T04:31:02.952Z,123.85
2023-01-05T04:33:32.208Z,117.20
2023-01-05T04:36:01.280Z,140.63
2023-01-05T04:38:31.544Z,116.55
2023-01-05T04:40:59.154Z,112.65
2023-01-05T04:43:27.117Z,132.57
2023-01-05T04:45:59.140Z,152.40
2023-01-05T04:48:26.641Z,100.72
2023-01-05T04:50:55.038Z,109.50
2023-01-05T04:53:28.886Z,109.18
2023-01-05T04:55:56.531Z,232.63
2023-01-05T04:58:24.829Z,68.15
2023-01-05T05:00:54.887Z,74.03
2023-01-05T05:03:25.667Z,440.58
2023-01-05T05:05:55.996Z,1999.90
2023-01-05T05:08:24.102Z,1121.03
2023-01-05T05:10:52.236Z,1808.38
2023-01-05T05:13:21.100Z,78.85
2023-01-05T05:15:52.082Z,275.20
2023-01-05T05:18:21.347Z,60.72
2023-01-05T05:20:51.797Z,1999.90
2023-01-05T05:23:20.099Z,1999.90
2023-01-05T05:25:51.017Z,1999.90
2023-01-05T05:28:20.648Z,1999.90
2023-01-05T05:30:49.443Z,1925.40
2023-01-05T05:33:16.858Z,1999.90
2023-01-05T05:35:44.224Z,1999.90
2023-01-05T05:38:11.662Z,1971.95
2023-01-05T05:40:39.002Z,347.02
2023-01-05T05:43:06.599Z,1999.90
2023-01-05T05:45:33.971Z,1999.90
2023-01-05T05:48:01.439Z,1999.90
2023-01-05T05:50:28.945Z,1954.97
2023-01-05T05:52:56.342Z,1485.10
2023-01-05T05:55:23.709Z,1999.90
2023-01-05T05:57:51.128Z,1999.90
2023-01-05T06:00:18.554Z,1999.90
2023-01-05T06:02:46.079Z,1999.90
2023-01-05T06:05:13.581Z,1070.10
2023-01-05T06:07:41.256Z,999.28
2023-01-05T06:10:09.022Z,609.40
2023-01-05T06:12:36.498Z,1999.90
2023-01-05T06:15:04.952Z,107.78
2023-01-05T06:17:32.351Z,143.10
2023-01-05T06:20:01.320Z,324.63
2023-01-05T06:22:28.701Z,212.98
2023-01-05T06:24:56.127Z,161.73
2023-01-05T06:27:23.551Z,264.27
2023-01-05T06:29:50.916Z,250.70
2023-01-05T06:32:18.353Z,182.82
2023-01-05T06:34:45.729Z,162.98
2023-01-05T06:37:13.125Z,159.40
2023-01-05T06:39:40.475Z,172.52
2023-01-05T06:42:08.263Z,107.07
2023-01-05T06:44:35.704Z,136.30
2023-01-05T06:47:03.283Z,122.18
2023-01-05T06:49:30.927Z,139.63
2023-01-05T06:51:58.261Z,126.63
2023-01-05T06:54:25.682Z,114.70
2023-01-05T06:56:53.055Z,388.77
2023-01-05T06:59:20.511Z,139.07
2023-01-05T07:01:48.052Z,94.38
2023-01-05T07:04:15.612Z,111.10
2023-01-05T07:06:43.155Z,99.13
2023-01-05T07:09:10.729Z,113.60
2023-01-05T07:11:38.305Z,72.55
2023-01-05T07:14:05.812Z,105.22
2023-01-05T07:16:33.236Z,103.22
2023-01-05T07:19:00.667Z,85.97
2023-01-05T07:21:28.064Z,89.30
2023-01-05T07:23:55.535Z,83.15
2023-01-05T07:26:22.881Z,75.80
2023-01-05T07:28:50.433Z,74.13
2023-01-05T07:31:17.860Z,73.40
2023-01-05T07:33:45.316Z,68.60
2023-01-05T07:36:13.482Z,84.22
2023-01-05T07:38:40.930Z,91.10
2023-01-05T07:41:08.965Z,82.43
2023-01-05T07:43:36.553Z,88.10
2023-01-05T07:46:04.923Z,79.38
2023-01-05T07:48:32.466Z,87.50
2023-01-05T07:51:04.361Z,78.65
2023-01-05T07:53:34.666Z,80.15
2023-01-05T07:56:06.576Z,71.50
2023-01-05T07:58:34.341Z,69.13
2023-01-05T08:01:09.571Z,69.30
2023-01-05T08:03:37.276Z,73.43
2023-01-05T08:06:08.355Z,73.35
2023-01-05T08:08:35.860Z,69.18
2023-01-05T08:11:07.339Z,57.30
2023-01-05T08:13:53.882Z,60.83
2023-01-05T08:16:21.695Z,70.45
2023-01-05T08:18:49.102Z,64.72
2023-01-05T08:21:16.600Z,65.20
2023-01-05T08:23:45.877Z,67.90
2023-01-05T08:26:14.822Z,75.82
2023-01-05T08:28:42.647Z,64.53
2023-01-05T08:31:21.178Z,69.68
2023-01-05T08:33:49.269Z,71.65
2023-01-05T08:36:19.820Z,66.72
2023-01-05T08:38:52.401Z,71.13
2023-01-05T08:41:20.938Z,62.00
2023-01-05T08:43:52.354Z,66.03
2023-01-05T08:46:20.779Z,66.97
2023-01-05T08:48:51.517Z,60.63
2023-01-05T08:51:19.342Z,58.38
2023-01-05T08:53:47.425Z,66.65
2023-01-05T08:56:15.431Z,58.50
2023-01-05T08:58:43.003Z,54.60
2023-01-05T09:01:11.262Z,55.05
2023-01-05T09:03:38.859Z,57.05
2023-01-05T09:06:09.261Z,56.97
2023-01-05T09:08:37.333Z,62.05
2023-01-05T09:11:23.960Z,59.90
2023-01-05T09:13:52.565Z,65.15
2023-01-05T09:19:10.003Z,58.83
2023-01-05T09:21:39.608Z,57.30
2023-01-05T09:24:14.305Z,54.38
2023-01-05T09:26:42.217Z,52.28
2023-01-05T09:29:09.941Z,49.83
2023-01-05T09:31:37.409Z,51.33
2023-01-05T09:34:04.984Z,51.25
2023-01-05T09:36:32.695Z,55.17
2023-01-05T09:39:00.186Z,81.70
2023-01-05T09:41:44.943Z,63.25
2023-01-05T09:44:27.389Z,47.67
2023-01-05T09:46:56.716Z,52.17
2023-01-05T09:49:25.571Z,88.88
2023-01-05T09:51:56.513Z,61.55
2023-01-05T09:54:25.966Z,47.70
2023-01-05T09:57:10.513Z,41.65
2023-01-05T09:59:40.343Z,43.50
2023-01-05T10:02:20.798Z,39.35
2023-01-05T10:04:49.156Z,44.22
2023-01-05T10:07:21.927Z,41.17
2023-01-05T10:09:49.449Z,48.10
2023-01-05T10:12:44.492Z,53.67
2023-01-05T10:15:17.163Z,56.03
2023-01-05T10:17:44.915Z,42.28
2023-01-05T10:20:16.782Z,38.95
2023-01-05T10:22:57.492Z,40.58
2023-01-05T10:25:46.194Z,36.65
2023-01-05T10:28:16.719Z,38.65
2023-01-05T10:30:53.324Z,39.63
2023-01-05T10:33:38.722Z,37.88
2023-01-05T10:36:41.368Z,36.08
2023-01-05T10:39:13.630Z,38.85
2023-01-05T10:41:41.277Z,39.47
2023-01-05T10:44:29.306Z,35.85
2023-01-05T10:46:56.808Z,35.05
2023-01-05T10:49:28.959Z,39.17
2023-01-05T10:52:00.362Z,35.30
2023-01-05T10:54:30.585Z,38.35
2023-01-05T10:57:17.967Z,35.00
2023-01-05T10:59:55.283Z,34.35
2023-01-05T11:02:22.977Z,35.65
2023-01-05T11:04:51.009Z,34.42
2023-01-05T11:07:18.556Z,33.00
2023-01-05T11:09:51.770Z,31.05
2023-01-05T11:12:20.748Z,31.98
2023-01-05T11:14:58.119Z,31.55
2023-01-05T11:17:27.912Z,32.33
2023-01-05T11:19:56.573Z,32.58
2023-01-05T11:22:51.301Z,31.95
2023-01-05T11:25:32.316Z,32.50
2023-01-05T11:28:05.801Z,29.70
2023-01-05T11:30:33.636Z,30.13
2023-01-05T11:33:01.931Z,27.25
2023-01-05T11:35:34.207Z,29.17
2023-01-05T11:38:01.864Z,30.25
2023-01-05T11:40:34.257Z,27.90
2023-01-05T11:43:01.981Z,26.80
2023-01-05T11:45:35.075Z,30.33
2023-01-05T11:48:04.339Z,28.92
2023-01-05T11:50:32.607Z,29.83
2023-01-05T11:53:03.440Z,34.42
2023-01-05T11:55:30.954Z,30.63
2023-01-05T11:58:17.705Z,27.08
2023-01-05T12:00:51.061Z,30.30
2023-01-05T12:03:18.585Z,27.90
2023-01-05T12:05:45.928Z,29.50
2023-01-05T12:08:18.727Z,30.50
2023-01-05T12:10:55.591Z,26.27
2023-01-05T12:13:25.862Z,26.30
2023-01-05T12:16:06.333Z,25.60
2023-01-05T12:18:36.561Z,30.08
2023-01-05T12:21:27.235Z,25.27
2023-01-05T12:23:54.756Z,27.02
2023-01-05T12:26:26.582Z,28.75
2023-01-05T12:35:08.458Z,25.88
2023-01-05T12:37:48.313Z,28.50
2023-01-05T12:40:15.785Z,20.23
2023-01-05T12:42:43.291Z,25.45
2023-01-05T12:45:19.992Z,24.90
2023-01-05T12:47:50.504Z,22.00
2023-01-05T12:50:33.042Z,21.20
2023-01-05T12:53:09.530Z,20.02
2023-01-05T12:55:41.119Z,22.48
2023-01-05T12:58:29.783Z,22.50
2023-01-05T13:00:57.832Z,22.45
2023-01-05T13:03:25.293Z,22.80
2023-01-05T13:05:57.399Z,21.52
2023-01-05T13:08:34.030Z,22.50
2023-01-05T13:11:04.516Z,20.90
2023-01-05T13:13:49.629Z,22.35
2023-01-05T13:16:22.867Z,23.33
2023-01-05T13:18:53.120Z,25.75
2023-01-05T13:21:23.324Z,26.08
2023-01-05T13:24:00.442Z,26.58
2023-01-05T13:26:31.475Z,29.42
2023-01-05T13:29:01.804Z,26.13
2023-01-05T13:31:29.192Z,27.98
2023-01-05T13:34:14.889Z,29.17
2023-01-05T13:36:51.549Z,29.45
2023-01-05T13:39:22.548Z,25.60
2023-01-05T13:42:08.381Z,33.47
2023-01-05T13:44:43.247Z,22.75
2023-01-05T13:47:17.650Z,18.88
2023-01-05T13:49:57.294Z,20.65
2023-01-05T13:52:43.150Z,23.73
2023-01-05T13:55:17.843Z,20.65
2023-01-05T13:57:49.452Z,17.58
2023-01-05T14:00:22.752Z,23.90
2023-01-05T14:03:08.055Z,20.00
2023-01-05T14:05:54.394Z,18.20
2023-01-05T14:08:26.966Z,20.90
2023-01-05T14:11:14.482Z,19.40
2023-01-05T14:13:43.311Z,19.55
2023-01-05T14:16:29.513Z,21.25
2023-01-05T14:19:11.103Z,20.15
2023-01-05T14:22:00.266Z,20.92
2023-01-05T14:27:15.401Z,20.52
2023-01-05T14:29:48.906Z,23.95
2023-01-05T14:32:19.479Z,24.20
2023-01-05T14:34:48.556Z,22.13
2023-01-05T14:37:21.844Z,24.13
2023-01-05T14:39:53.283Z,23.63
2023-01-05T14:42:25.724Z,27.30
2023-01-05T14:45:01.074Z,22.50
2023-01-05T14:47:36.575Z,22.13
2023-01-05T14:50:05.068Z,22.88
2023-01-05T14:52:51.318Z,23.40
2023-01-05T14:55:37.277Z,24.63
2023-01-05T14:58:11.600Z,23.83
2023-01-05T15:03:09.762Z,22.38
2023-01-05T15:05:38.820Z,25.95
2023-01-05T15:08:21.896Z,30.33
2023-01-05T15:10:52.437Z,22.65
2023-01-05T15:13:38.810Z,23.80
2023-01-05T15:18:45.653Z,25.83
2023-01-05T15:21:13.016Z,24.08
2023-01-05T15:23:59.099Z,24.20
2023-01-05T15:26:44.997Z,23.92
2023-01-05T15:29:18.255Z,25.83
2023-01-05T15:31:57.426Z,26.65
2023-01-05T15:34:31.045Z,27.08
2023-01-05T15:37:05.546Z,26.38
2023-01-05T15:39:34.659Z,26.08
2023-01-05T15:42:06.442Z,25.10
2023-01-05T15:44:37.287Z,25.95
2023-01-05T15:47:05.239Z,23.50
2023-01-05T15:49:34.516Z,22.98
2023-01-05T15:52:02.509Z,22.85
2023-01-05T15:54:31.112Z,21.40
2023-01-05T15:56:59.992Z,22.65
2023-01-05T15:59:32.378Z,20.42
2023-01-05T16:02:00.118Z,20.42
2023-01-05T16:04:27.688Z,20.75
2023-01-05T16:06:59.367Z,21.10
2023-01-05T16:09:36.912Z,20.92
2023-01-05T16:12:07.595Z,22.55
2023-01-05T16:14:44.500Z,20.85
2023-01-05T16:17:15.318Z,22.38
2023-01-05T16:19:45.382Z,19.33
2023-01-05T16:22:22.188Z,19.92
2023-01-05T16:24:58.397Z,19.45
2023-01-05T16:27:25.904Z,20.88
2023-01-05T16:29:53.413Z,20.35
2023-01-05T16:32:31.761Z,20.42
2023-01-05T16:35:18.065Z,18.45
2023-01-05T16:37:46.361Z,21.05
2023-01-05T16:40:20.845Z,23.48
2023-01-05T16:42:50.580Z,20.38
2023-01-05T16:45:18.311Z,24.08
2023-01-05T16:47:46.165Z,24.10
2023-01-05T16:50:20.341Z,23.52
2023-01-05T16:52:54.789Z,21.60
2023-01-05T16:55:36.255Z,23.60
2023-01-05T16:58:05.236Z,23.55
2023-01-05T17:00:33.299Z,25.75
2023-01-05T17:03:02.561Z,23.48
2023-01-05T17:05:31.581Z,22.15
2023-01-05T17:08:08.309Z,27.95
2023-01-05T17:10:35.784Z,24.58
2023-01-05T17:13:07.482Z,22.52
2023-01-05T17:15:36.169Z,24.08
2023-01-05T17:18:15.266Z,23.60
2023-01-05T17:20:43.324Z,25.67
2023-01-05T17:23:38.280Z,22.83
2023-01-05T17:26:10.667Z,23.27
2023-01-05T17:28:39.893Z,22.73
2023-01-05T17:31:09.499Z,20.85
2023-01-05T17:33:36.862Z,23.90
2023-01-05T17:36:04.512Z,26.38
2023-01-05T17:38:31.906Z,24.05
2023-01-05T17:40:59.385Z,27.52
2023-01-05T17:43:26.920Z,27.63
2023-01-05T17:45:54.432Z,25.85
2023-01-05T17:48:21.909Z,27.58
2023-01-05T17:50:52.121Z,26.73
2023-01-05T17:53:21.622Z,32.60
2023-01-05T17:55:49.026Z,33.83
2023-01-05T17:58:16.518Z,82.35
2023-01-05T18:03:22.261Z,24.70
2023-01-05T18:05:51.371Z,28.27
2023-01-05T18:08:19.476Z,24.60
2023-01-05T18:10:47.704Z,26.83
2023-01-05T18:13:16.792Z,24.52
2023-01-05T18:15:49.628Z,26.55
2023-01-05T18:18:18.098Z,28.60
2023-01-05T18:20:45.434Z,26.65
2023-01-05T18:23:12.939Z,26.63
2023-01-05T18:25:40.413Z,24.45
2023-01-05T18:28:07.894Z,21.95
2023-01-05T18:30:35.628Z,28.50
2023-01-05T18:33:03.330Z,23.83
2023-01-05T18:35:30.820Z,23.35
2023-01-05T18:38:01.015Z,23.98
2023-01-05T18:40:29.134Z,25.67
2023-01-05T18:42:56.585Z,23.90
2023-01-05T18:45:38.288Z,24.60
2023-01-05T18:48:06.151Z,23.83
2023-01-05T18:50:33.506Z,29.95
2023-01-05T18:53:02.560Z,22.73
2023-01-05T18:55:29.955Z,26.15
2023-01-05T18:57:57.379Z,21.88
2023-01-05T19:00:24.880Z,23.05
2023-01-05T19:02:52.290Z,21.92
2023-01-05T19:05:19.647Z,33.88
2023-01-05T19:07:51.415Z,27.90
2023-01-05T19:10:18.909Z,23.13
2023-01-05T19:12:46.394Z,26.65
2023-01-05T19:15:13.861Z,24.70
2023-01-05T19:17:41.453Z,23.65
2023-01-05T19:20:09.092Z,22.95
2023-01-05T19:22:36.522Z,22.67
2023-01-05T19:25:05.661Z,25.45
2023-01-05T19:27:33.074Z,17.50
2023-01-05T19:30:00.562Z,19.25
2023-01-05T19:32:27.959Z,18.50
2023-01-05T19:34:55.649Z,16.20
2023-01-05T19:37:23.118Z,18.40
2023-01-05T19:39:50.508Z,16.70
2023-01-05T19:42:17.873Z,18.20
2023-01-05T19:44:46.256Z,20.92
2023-01-05T19:47:13.597Z,16.48
2023-01-05T19:49:41.221Z,18.70
2023-01-05T19:52:08.645Z,17.02
2023-01-05T19:54:39.030Z,16.42
2023-01-05T19:57:06.806Z,16.80
2023-01-05T19:59:34.222Z,18.30
2023-01-05T20:02:02.641Z,17.67
2023-01-05T20:04:30.369Z,15.32
2023-01-05T20:06:57.990Z,18.48
2023-01-05T20:09:25.390Z,17.92
2023-01-05T20:11:59.480Z,16.50
2023-01-05T20:14:31.279Z,16.58
2023-01-05T20:17:00.356Z,14.27
2023-01-05T20:19:28.913Z,17.50
2023-01-05T20:21:56.980Z,15.43
2023-01-05T20:24:25.365Z,16.40
2023-01-05T20:26:54.103Z,15.15
2023-01-05T20:29:22.396Z,14.77
2023-01-05T20:32:00.657Z,13.25
2023-01-05T20:34:32.093Z,14.18
2023-01-05T20:37:01.795Z,14.20
2023-01-05T20:39:29.498Z,13.10
2023-01-05T20:42:04.667Z,11.10
2023-01-05T20:44:33.559Z,14.10
2023-01-05T20:47:01.336Z,15.35
2023-01-05T20:49:28.755Z,14.27
2023-01-05T20:51:56.241Z,15.32
2023-01-05T20:54:23.671Z,14.57
2023-01-05T20:56:51.039Z,15.20
2023-01-05T20:59:30.127Z,13.20
2023-01-05T21:01:58.071Z,13.98
2023-01-05T21:04:26.192Z,11.88
2023-01-05T21:06:59.509Z,13.52
2023-01-05T21:09:29.290Z,13.02
2023-01-05T21:11:56.977Z,12.50
2023-01-05T21:14:24.324Z,12.23
2023-01-05T21:16:52.872Z,12.52
2023-01-05T21:19:21.958Z,11.90
2023-01-05T21:21:50.634Z,11.68
2023-01-05T21:24:18.193Z,13.52
2023-01-05T21:26:45.759Z,11.10
2023-01-05T21:29:14.013Z,11.55
2023-01-05T21:31:41.490Z,12.98
2023-01-05T21:34:11.585Z,13.23
2023-01-05T21:36:41.453Z,10.55
2023-01-05T21:39:09.614Z,13.20
2023-01-05T21:41:57.185Z,10.90
2023-01-05T21:44:25.067Z,11.73
2023-01-05T21:46:53.443Z,11.73
2023-01-05T21:49:21.028Z,10.70
2023-01-05T21:52:07.049Z,11.73
2023-01-05T21:54:52.918Z,12.65
2023-01-05T21:57:20.395Z,10.25
2023-01-05T21:59:47.785Z,15.40
2023-01-05T22:02:15.758Z,12.50
2023-01-05T22:04:43.696Z,13.35
2023-01-05T22:07:11.155Z,11.23
2023-01-05T22:09:39.077Z,12.73
2023-01-05T22:12:09.804Z,10.02
2023-01-05T22:14:37.746Z,10.57
2023-01-05T22:17:05.872Z,11.93
2023-01-05T22:19:33.454Z,14.35
2023-01-05T22:22:01.069Z,13.60
2023-01-05T22:24:28.496Z,12.43
2023-01-05T22:26:55.880Z,12.05
2023-01-05T22:29:23.375Z,13.60
2023-01-05T22:31:51.072Z,11.23
2023-01-05T22:34:18.669Z,12.80
2023-01-05T22:36:46.141Z,13.02
2023-01-05T22:39:13.733Z,11.40
2023-01-05T22:41:41.104Z,12.13
2023-01-05T22:44:08.989Z,13.88
2023-01-05T22:46:36.383Z,13.77
2023-01-05T22:49:03.815Z,13.73
2023-01-05T22:51:35.999Z,14.38
2023-01-05T22:54:04.109Z,13.27
2023-01-05T22:56:32.253Z,13.95
2023-01-05T22:59:00.160Z,13.55
2023-01-05T23:01:27.572Z,13.75
2023-01-05T23:03:56.026Z,14.98
2023-01-05T23:06:23.948Z,14.10
2023-01-05T23:08:52.324Z,14.27
2023-01-05T23:11:22.509Z,12.48
2023-01-05T23:13:50.764Z,17.35
2023-01-05T23:16:18.584Z,12.88
2023-01-05T23:18:48.300Z,12.30
2023-01-05T23:21:16.940Z,11.48
2023-01-05T23:23:44.401Z,14.30
2023-01-05T23:26:12.676Z,13.57
2023-01-05T23:28:40.296Z,12.30
2023-01-05T23:31:08.124Z,13.38
2023-01-05T23:33:36.850Z,17.17
2023-01-05T23:36:05.411Z,13.60
2023-01-05T23:38:33.187Z,12.55
2023-01-05T23:41:00.769Z,13.35
2023-01-05T23:43:28.728Z,13.98
2023-01-05T23:46:00.998Z,14.02
2023-01-05T23:48:29.349Z,13.13
2023-01-05T23:50:57.318Z,13.95
2023-01-05T23:53:25.359Z,13.00
2023-01-05T23:55:52.760Z,15.25
2023-01-05T23:58:20.210Z,14.32
